Time;durP1;ratioP1;P1;durP2;ratioP2;P2;SDS_P1;SDS_P2;PMS_P1;PMS_P2;Temp;Humidity;BMP_temperature;BMP_pressure;BME280_temperature;BME280_humidity;BME280_pressure;Samples;Min_cycle;Max_cycle;Signal;HPM_P1;HPM_P2
2022/01/27 05:55:35;;;;;;;24.97;12.63;;;;;;;;;;4952662;29;20581;-89
2022/01/27 05:58:03;;;;;;;22.80;13.13;;;;;;;;;;4948972;29;20240;-90
2022/01/27 06:00:30;;;;;;;23.93;13.10;;;;;;;;;;4938137;28;20274;-90
2022/01/27 06:02:57;;;;;;;27.43;14.57;;;;;;;;;;4937665;29;20214;-91
2022/01/27 06:05:26;;;;;;;24.43;13.63;;;;;;;;;;4937152;29;20230;-91
2022/01/27 06:07:53;;;;;;;21.77;12.20;;;;;;;;;;4951586;29;20268;-91
2022/01/27 06:10:20;;;;;;;26.30;13.70;;;;;;;;;;4948311;28;20202;-90
2022/01/27 06:12:53;;;;;;;24.83;13.63;;;;;;;;;;4953227;29;20214;-90
2022/01/27 06:15:20;;;;;;;23.33;13.10;;;;;;;;;;4945816;29;20276;-91
2022/01/27 06:17:47;;;;;;;22.30;11.87;;;;;;;;;;4953618;29;20229;-91
2022/01/27 06:20:15;;;;;;;26.60;14.47;;;;;;;;;;4956661;29;20206;-91
2022/01/27 06:22:47;;;;;;;23.53;12.93;;;;;;;;;;4954618;29;20787;-91
2022/01/27 06:25:15;;;;;;;27.27;13.30;;;;;;;;;;4948753;28;20249;-91
2022/01/27 06:27:43;;;;;;;21.07;13.23;;;;;;;;;;4948392;29;20261;-90
2022/01/27 06:30:12;;;;;;;28.00;13.90;;;;;;;;;;4955850;29;20213;-90
2022/01/27 06:32:41;;;;;;;26.73;13.00;;;;;;;;;;4950877;28;20215;-90
2022/01/27 06:35:08;;;;;;;24.50;12.13;;;;;;;;;;4951644;29;20803;-92
2022/01/27 06:37:36;;;;;;;25.70;13.40;;;;;;;;;;4944577;29;20209;-90
2022/01/27 06:40:04;;;;;;;25.07;13.13;;;;;;;;;;4950200;29;20673;-90
2022/01/27 06:42:32;;;;;;;25.60;13.30;;;;;;;;;;4958290;29;20621;-90
2022/01/27 06:45:00;;;;;;;26.30;13.50;;;;;;;;;;4951587;29;20233;-90
2022/01/27 06:47:28;;;;;;;28.80;13.70;;;;;;;;;;4945882;29;20213;-90
2022/01/27 06:49:56;;;;;;;25.30;13.50;;;;;;;;;;4937074;29;20214;-90
2022/01/27 06:52:26;;;;;;;25.67;12.63;;;;;;;;;;4937325;29;20297;-89
2022/01/27 06:54:55;;;;;;;28.37;14.60;;;;;;;;;;4946071;29;20307;-90
2022/01/27 06:57:22;;;;;;;29.47;15.43;;;;;;;;;;4954177;29;20210;-90
2022/01/27 06:59:50;;;;;;;26.60;13.93;;;;;;;;;;4937053;29;20210;-90
2022/01/27 07:02:17;;;;;;;26.87;13.20;;;;;;;;;;4936266;29;20923;-89
2022/01/27 07:04:46;;;;;;;27.23;13.83;;;;;;;;;;4949033;29;20682;-89
2022/01/27 07:07:14;;;;;;;25.73;13.37;;;;;;;;;;4938774;29;20426;-90
2022/01/27 07:09:41;;;;;;;25.73;13.93;;;;;;;;;;4936467;29;20207;-89
2022/01/27 07:12:09;;;;;;;27.83;13.67;;;;;;;;;;4943721;29;20214;-90
2022/01/27 07:14:36;;;;;;;23.60;14.10;;;;;;;;;;4955480;29;20649;-90
2022/01/27 07:17:04;;;;;;;22.27;11.90;;;;;;;;;;4956139;29;20205;-89
2022/01/27 07:19:31;;;;;;;28.03;13.90;;;;;;;;;;4949547;29;20237;-89
2022/01/27 07:22:00;;;;;;;21.80;12.47;;;;;;;;;;4942060;29;20573;-90
2022/01/27 07:24:28;;;;;;;27.87;13.83;;;;;;;;;;4937433;29;20699;-89
2022/01/27 07:26:55;;;;;;;25.87;13.60;;;;;;;;;;4936463;29;20226;-89
2022/01/27 07:29:22;;;;;;;24.10;12.63;;;;;;;;;;4944709;29;20267;-90
2022/01/27 07:31:50;;;;;;;23.83;12.83;;;;;;;;;;4945669;29;20650;-89
2022/01/27 07:34:17;;;;;;;28.50;13.80;;;;;;;;;;4939062;29;20253;-89
2022/01/27 07:36:44;;;;;;;24.40;12.13;;;;;;;;;;4935658;28;20229;-90
2022/01/27 07:39:15;;;;;;;25.30;13.67;;;;;;;;;;4946500;29;20268;-90
2022/01/27 07:41:44;;;;;;;24.13;12.83;;;;;;;;;;4941082;29;20276;-89
2022/01/27 07:44:12;;;;;;;25.63;13.60;;;;;;;;;;4955260;28;20308;-90
2022/01/27 07:46:39;;;;;;;23.07;13.33;;;;;;;;;;4940059;28;20229;-89
2022/01/27 07:49:07;;;;;;;27.23;12.83;;;;;;;;;;4951380;29;20215;-89
2022/01/27 07:51:35;;;;;;;24.47;13.67;;;;;;;;;;4940126;29;20662;-89
2022/01/27 07:54:02;;;;;;;26.60;12.43;;;;;;;;;;4953765;28;20245;-89
2022/01/27 07:56:33;;;;;;;27.20;13.40;;;;;;;;;;4938855;29;20260;-89
2022/01/27 07:59:00;;;;;;;24.37;12.23;;;;;;;;;;4948866;29;20639;-89
2022/01/27 08:01:28;;;;;;;25.13;13.90;;;;;;;;;;4940070;29;20217;-89
2022/01/27 08:03:55;;;;;;;27.07;13.53;;;;;;;;;;4941144;29;20280;-89
2022/01/27 08:06:23;;;;;;;26.13;14.03;;;;;;;;;;4955174;29;20233;-91
2022/01/27 08:08:50;;;;;;;23.37;12.60;;;;;;;;;;4946672;29;20580;-91
2022/01/27 08:11:18;;;;;;;22.77;12.93;;;;;;;;;;4944420;29;20214;-90
2022/01/27 08:13:47;;;;;;;29.70;13.77;;;;;;;;;;4935318;29;20264;-89
2022/01/27 08:16:14;;;;;;;24.83;14.03;;;;;;;;;;4951109;29;20579;-91
2022/01/27 08:18:42;;;;;;;28.03;13.50;;;;;;;;;;4943281;29;20216;-90
2022/01/27 08:21:09;;;;;;;26.07;14.03;;;;;;;;;;4946351;29;20268;-90
2022/01/27 08:23:38;;;;;;;24.53;14.37;;;;;;;;;;4942442;29;20226;-90
2022/01/27 08:26:08;;;;;;;26.67;13.67;;;;;;;;;;4938514;29;20757;-90
2022/01/27 08:28:40;;;;;;;25.33;13.27;;;;;;;;;;4941960;29;20667;-89
2022/01/27 08:31:09;;;;;;;27.07;15.13;;;;;;;;;;4944640;29;20713;-89
2022/01/27 08:33:39;;;;;;;23.20;12.47;;;;;;;;;;4943936;29;20221;-90
2022/01/27 08:36:07;;;;;;;24.10;13.00;;;;;;;;;;4941938;29;20904;-90
2022/01/27 08:38:36;;;;;;;25.53;13.53;;;;;;;;;;4939555;29;20206;-89
2022/01/27 08:41:08;;;;;;;26.10;14.57;;;;;;;;;;4944544;29;20205;-90
2022/01/27 08:43:35;;;;;;;22.60;12.27;;;;;;;;;;4941963;29;20229;-90
2022/01/27 08:46:03;;;;;;;27.90;14.30;;;;;;;;;;4941422;29;20237;-89
2022/01/27 08:48:43;;;;;;;25.43;14.43;;;;;;;;;;4941001;29;20955;-89
2022/01/27 08:51:11;;;;;;;26.13;12.93;;;;;;;;;;4941251;29;20667;-89
2022/01/27 08:53:38;;;;;;;25.87;13.07;;;;;;;;;;4938792;29;20255;-90
2022/01/27 08:56:06;;;;;;;24.80;13.27;;;;;;;;;;4942228;29;20218;-91
2022/01/27 08:58:34;;;;;;;24.97;13.37;;;;;;;;;;4943105;29;20686;-90
2022/01/27 09:01:03;;;;;;;25.77;12.40;;;;;;;;;;4943483;29;20302;-90
2022/01/27 09:03:31;;;;;;;24.93;11.90;;;;;;;;;;4939651;29;20290;-90
2022/01/27 09:06:00;;;;;;;27.90;12.63;;;;;;;;;;4941653;29;20202;-90
2022/01/27 09:08:27;;;;;;;26.00;13.37;;;;;;;;;;4944027;29;20202;-90
2022/01/27 09:10:58;;;;;;;25.07;12.07;;;;;;;;;;4941430;29;20722;-90
2022/01/27 09:13:25;;;;;;;27.10;12.53;;;;;;;;;;4950618;29;20264;-90
2022/01/27 09:15:57;;;;;;;26.97;12.73;;;;;;;;;;4953703;29;20730;-90
2022/01/27 09:18:25;;;;;;;39.97;19.63;;;;;;;;;;4948791;29;20222;-89
2022/01/27 09:20:53;;;;;;;27.73;12.67;;;;;;;;;;4939982;29;20205;-90
2022/01/27 09:23:22;;;;;;;27.73;11.97;;;;;;;;;;4951401;28;20600;-90
2022/01/27 09:25:55;;;;;;;29.20;11.70;;;;;;;;;;4952309;28;20273;-91
2022/01/27 09:28:26;;;;;;;18.03;9.70;;;;;;;;;;4948961;28;20214;-90
2022/01/27 09:30:57;;;;;;;28.07;11.70;;;;;;;;;;4949257;29;20213;-90
2022/01/27 09:33:25;;;;;;;11.83;6.53;;;;;;;;;;4935325;29;20214;-90
2022/01/27 09:35:52;;;;;;;17.23;8.27;;;;;;;;;;4937360;29;20586;-90
2022/01/27 09:38:20;;;;;;;17.40;8.63;;;;;;;;;;4951288;29;20209;-90
2022/01/27 09:40:55;;;;;;;20.67;10.07;;;;;;;;;;4952233;29;20202;-90
2022/01/27 09:43:22;;;;;;;18.93;10.27;;;;;;;;;;4935657;29;20213;-91
2022/01/27 09:45:51;;;;;;;22.70;10.77;;;;;;;;;;4940793;29;20581;-91
2022/01/27 09:48:20;;;;;;;23.20;10.93;;;;;;;;;;4944398;29;20229;-91
2022/01/27 09:51:00;;;;;;;25.03;10.93;;;;;;;;;;4942156;29;20221;-91
2022/01/27 09:53:30;;;;;;;25.37;13.10;;;;;;;;;;4933332;29;20241;-91
2022/01/27 09:55:59;;;;;;;25.07;11.03;;;;;;;;;;4948251;29;20217;-92
2022/01/27 09:58:28;;;;;;;26.73;12.27;;;;;;;;;;4936556;28;20210;-91
2022/01/27 10:00:55;;;;;;;29.10;12.90;;;;;;;;;;4935741;29;20212;-91
2022/01/27 10:03:25;;;;;;;24.77;11.67;;;;;;;;;;4943039;29;20213;-91
2022/01/27 10:06:11;;;;;;;30.13;13.27;;;;;;;;;;4934822;29;20209;-91
2022/01/27 10:08:41;;;;;;;24.33;11.73;;;;;;;;;;4939557;29;20213;-91
2022/01/27 10:11:16;;;;;;;25.67;12.17;;;;;;;;;;4949937;29;20233;-91
2022/01/27 10:13:43;;;;;;;30.93;13.03;;;;;;;;;;4941917;29;20313;-91
2022/01/27 10:16:29;;;;;;;25.60;12.37;;;;;;;;;;4934874;29;20228;-91
2022/01/27 10:19:06;;;;;;;28.97;11.73;;;;;;;;;;4936210;29;20212;-91
2022/01/27 10:21:36;;;;;;;22.20;11.87;;;;;;;;;;4945314;29;20217;-91
2022/01/27 10:24:18;;;;;;;24.87;13.83;;;;;;;;;;4949237;29;20612;-90
2022/01/27 10:26:53;;;;;;;25.23;12.73;;;;;;;;;;4943576;29;20288;-92
2022/01/27 10:29:35;;;;;;;24.77;11.63;;;;;;;;;;4944459;29;20216;-91
2022/01/27 10:32:06;;;;;;;21.37;11.50;;;;;;;;;;4948968;29;20212;-91
2022/01/27 10:34:57;;;;;;;27.30;12.03;;;;;;;;;;4951354;28;20312;-91
2022/01/27 10:37:26;;;;;;;25.97;13.03;;;;;;;;;;4942013;29;20293;-91
2022/01/27 10:39:54;;;;;;;26.33;12.40;;;;;;;;;;4942292;29;20236;-91
2022/01/27 10:42:26;;;;;;;24.87;11.67;;;;;;;;;;4953707;28;20612;-91
2022/01/27 10:44:57;;;;;;;24.70;11.90;;;;;;;;;;4945636;29;20745;-91
2022/01/27 10:47:29;;;;;;;22.10;11.60;;;;;;;;;;4943475;28;20221;-91
2022/01/27 10:50:01;;;;;;;23.60;11.63;;;;;;;;;;4938215;29;20571;-91
2022/01/27 10:52:43;;;;;;;23.83;12.03;;;;;;;;;;4934729;29;20220;-90
2022/01/27 10:55:11;;;;;;;22.30;11.00;;;;;;;;;;4941582;29;20244;-91
2022/01/27 10:57:52;;;;;;;21.27;10.00;;;;;;;;;;4934192;29;20216;-91
2022/01/27 11:00:21;;;;;;;20.23;11.30;;;;;;;;;;4937917;29;20222;-90
2022/01/27 11:02:56;;;;;;;26.30;12.67;;;;;;;;;;4942854;29;20222;-91
2022/01/27 11:05:25;;;;;;;25.43;12.10;;;;;;;;;;4950758;29;20579;-92
2022/01/27 11:07:53;;;;;;;20.97;11.97;;;;;;;;;;4952429;29;20232;-91
2022/01/27 11:10:27;;;;;;;24.43;12.17;;;;;;;;;;4935110;28;20216;-92
2022/01/27 11:12:56;;;;;;;22.30;12.03;;;;;;;;;;4947267;29;20222;-92
2022/01/27 11:15:28;;;;;;;22.17;10.77;;;;;;;;;;4951721;29;20747;-92
2022/01/27 11:18:03;;;;;;;21.13;10.83;;;;;;;;;;4944554;29;20206;-91
2022/01/27 11:20:35;;;;;;;20.37;10.87;;;;;;;;;;4939253;28;20308;-91
2022/01/27 11:25:55;;;;;;;21.50;11.40;;;;;;;;;;4941319;29;20650;-92
2022/01/27 11:28:36;;;;;;;22.33;10.50;;;;;;;;;;4933353;29;20671;-91
2022/01/27 11:34:10;;;;;;;21.17;10.87;;;;;;;;;;4949035;29;20229;-91
2022/01/27 11:36:39;;;;;;;22.20;11.43;;;;;;;;;;4947631;28;20632;-91
2022/01/27 11:39:16;;;;;;;13.30;6.93;;;;;;;;;;4952536;29;20267;-91
2022/01/27 11:41:50;;;;;;;18.47;9.90;;;;;;;;;;4951734;29;20219;-91
2022/01/27 11:44:45;;;;;;;20.30;11.30;;;;;;;;;;4940341;29;20225;-92
2022/01/27 11:47:33;;;;;;;20.67;10.07;;;;;;;;;;4929765;28;20724;-91
2022/01/27 11:50:05;;;;;;;20.40;9.90;;;;;;;;;;4932815;29;20210;-92
2022/01/27 11:52:36;;;;;;;20.93;10.03;;;;;;;;;;4947915;29;20602;-91
2022/01/27 11:55:28;;;;;;;17.13;8.30;;;;;;;;;;4932512;29;20248;-91
2022/01/27 11:58:02;;;;;;;21.37;10.57;;;;;;;;;;4938945;29;20208;-91
2022/01/27 12:00:31;;;;;;;18.43;10.17;;;;;;;;;;4942791;29;20212;-91
2022/01/27 12:03:20;;;;;;;15.67;8.83;;;;;;;;;;4932160;29;20234;-92
2022/01/27 12:06:02;;;;;;;16.50;8.87;;;;;;;;;;4932717;29;20214;-91
2022/01/27 12:08:34;;;;;;;14.40;7.00;;;;;;;;;;4935196;29;20229;-92
2022/01/27 12:11:06;;;;;;;20.67;9.97;;;;;;;;;;4952079;29;20213;-91
2022/01/27 12:14:00;;;;;;;19.23;9.30;;;;;;;;;;4935669;28;20228;-92
2022/01/27 12:16:51;;;;;;;20.60;10.40;;;;;;;;;;4952297;29;20209;-91
2022/01/27 12:19:20;;;;;;;18.73;11.00;;;;;;;;;;4950487;29;20296;-91
2022/01/27 12:22:00;;;;;;;20.73;10.43;;;;;;;;;;4951480;29;20217;-92
2022/01/27 12:24:29;;;;;;;6.60;3.10;;;;;;;;;;4951870;29;20312;-92
2022/01/27 12:27:05;;;;;;;20.10;9.50;;;;;;;;;;4934524;29;20226;-91
2022/01/27 12:29:39;;;;;;;19.67;10.23;;;;;;;;;;4943040;29;20296;-91
2022/01/27 12:32:08;;;;;;;21.87;10.60;;;;;;;;;;4951313;29;20231;-91
2022/01/27 12:34:39;;;;;;;19.67;9.30;;;;;;;;;;4943580;28;20594;-93
2022/01/27 12:37:14;;;;;;;18.87;10.30;;;;;;;;;;4939512;29;20223;-91
2022/01/27 12:39:53;;;;;;;22.27;10.87;;;;;;;;;;4932954;29;20220;-92
2022/01/27 12:42:32;;;;;;;23.27;9.77;;;;;;;;;;4932767;29;20657;-91
2022/01/27 12:45:04;;;;;;;21.93;12.10;;;;;;;;;;4934778;29;20332;-91
2022/01/27 12:47:33;;;;;;;22.40;11.27;;;;;;;;;;4942185;29;20245;-91
2022/01/27 12:50:07;;;;;;;22.23;10.20;;;;;;;;;;4951354;29;20284;-91
2022/01/27 12:52:39;;;;;;;27.00;14.07;;;;;;;;;;4942302;29;20618;-92
2022/01/27 12:55:07;;;;;;;9.97;5.37;;;;;;;;;;4938170;29;20246;-92
2022/01/27 12:57:36;;;;;;;21.57;10.23;;;;;;;;;;4932107;29;20562;-91
2022/01/27 13:00:09;;;;;;;18.37;8.83;;;;;;;;;;4934975;29;20232;-91
2022/01/27 13:02:37;;;;;;;19.07;8.93;;;;;;;;;;4938671;29;20233;-92
2022/01/27 13:05:07;;;;;;;16.63;8.57;;;;;;;;;;4952020;29;20748;-91
2022/01/27 13:07:36;;;;;;;19.47;10.67;;;;;;;;;;4954101;29;20225;-91
2022/01/27 13:10:08;;;;;;;15.50;9.70;;;;;;;;;;4954211;29;20220;-91
2022/01/27 13:12:41;;;;;;;16.77;7.33;;;;;;;;;;4950012;29;20300;-91
2022/01/27 13:15:11;;;;;;;16.03;8.57;;;;;;;;;;4951256;29;20313;-91
2022/01/27 13:17:45;;;;;;;14.27;8.73;;;;;;;;;;4952043;29;20280;-91
2022/01/27 13:20:27;;;;;;;23.00;12.77;;;;;;;;;;4945856;29;20241;-91
2022/01/27 13:23:01;;;;;;;24.67;10.20;;;;;;;;;;4955647;28;20213;-91
2022/01/27 13:25:41;;;;;;;13.23;7.20;;;;;;;;;;4955387;28;20229;-91
2022/01/27 13:28:10;;;;;;;20.37;10.43;;;;;;;;;;4954919;29;20258;-91
2022/01/27 13:30:38;;;;;;;19.00;9.70;;;;;;;;;;4957152;28;20292;-93
2022/01/27 13:33:10;;;;;;;19.90;10.17;;;;;;;;;;4954677;29;20272;-92
2022/01/27 13:35:43;;;;;;;21.77;11.40;;;;;;;;;;4954851;29;20292;-92
2022/01/27 13:38:20;;;;;;;19.63;9.80;;;;;;;;;;4954470;29;20291;-92
2022/01/27 13:43:37;;;;;;;15.30;8.90;;;;;;;;;;4953462;29;20232;-92
2022/01/27 13:46:05;;;;;;;16.47;7.83;;;;;;;;;;4951675;29;20217;-91
2022/01/27 13:48:43;;;;;;;14.07;7.73;;;;;;;;;;4949921;29;20236;-92
2022/01/27 13:51:18;;;;;;;16.20;8.17;;;;;;;;;;4942970;29;20209;-91
2022/01/27 13:54:05;;;;;;;14.57;8.10;;;;;;;;;;4935768;29;20292;-91
2022/01/27 13:56:42;;;;;;;14.47;7.90;;;;;;;;;;4934601;29;20218;-92
2022/01/27 13:59:13;;;;;;;13.60;6.87;;;;;;;;;;4943029;29;20655;-92
2022/01/27 14:01:46;;;;;;;16.87;6.63;;;;;;;;;;4935561;29;20202;-92
2022/01/27 14:04:14;;;;;;;12.73;7.37;;;;;;;;;;4935081;29;20313;-93
2022/01/27 14:06:50;;;;;;;20.50;7.33;;;;;;;;;;4946210;29;20214;-91
2022/01/27 14:09:18;;;;;;;13.73;6.70;;;;;;;;;;4942576;29;20221;-92
2022/01/27 14:11:51;;;;;;;10.93;6.80;;;;;;;;;;4934577;29;20234;-91
2022/01/27 14:14:20;;;;;;;14.77;7.00;;;;;;;;;;4934447;29;20226;-91
2022/01/27 14:16:55;;;;;;;13.40;6.70;;;;;;;;;;4953868;29;20225;-92
2022/01/27 14:19:23;;;;;;;11.37;5.77;;;;;;;;;;4942365;29;20296;-91
2022/01/27 14:21:54;;;;;;;10.47;6.20;;;;;;;;;;4935155;29;20573;-92
2022/01/27 14:24:26;;;;;;;13.97;6.83;;;;;;;;;;4935529;29;20234;-91
2022/01/27 14:27:03;;;;;;;13.73;7.50;;;;;;;;;;4953556;29;20212;-91
2022/01/27 14:29:32;;;;;;;10.53;6.20;;;;;;;;;;4953788;29;20229;-91
2022/01/27 14:32:00;;;;;;;10.00;5.40;;;;;;;;;;4953786;29;20220;-93
2022/01/27 14:34:31;;;;;;;11.03;5.53;;;;;;;;;;4953260;29;20695;-93
2022/01/27 14:37:00;;;;;;;10.57;5.70;;;;;;;;;;4947546;29;20208;-92
2022/01/27 14:39:31;;;;;;;10.83;6.50;;;;;;;;;;4952605;29;20212;-91
2022/01/27 14:41:58;;;;;;;10.70;5.90;;;;;;;;;;4953315;29;20209;-91
2022/01/27 14:44:34;;;;;;;12.47;5.93;;;;;;;;;;4953438;29;20240;-92
2022/01/27 14:47:07;;;;;;;9.07;5.20;;;;;;;;;;4953933;29;20279;-92
2022/01/27 14:49:41;;;;;;;14.37;6.50;;;;;;;;;;4952254;29;20225;-92
2022/01/27 14:52:15;;;;;;;11.27;5.47;;;;;;;;;;4949884;29;20213;-93
2022/01/27 14:54:42;;;;;;;10.70;6.03;;;;;;;;;;4933929;29;20240;-91
2022/01/27 14:57:12;;;;;;;10.43;6.23;;;;;;;;;;4934279;29;20240;-92
2022/01/27 14:59:40;;;;;;;12.17;6.33;;;;;;;;;;4937805;29;20203;-91
2022/01/27 15:02:07;;;;;;;9.63;5.13;;;;;;;;;;4945840;29;20686;-91
2022/01/27 15:04:35;;;;;;;8.97;4.03;;;;;;;;;;4952765;29;20233;-92
2022/01/27 15:07:03;;;;;;;12.53;6.17;;;;;;;;;;4947696;29;20210;-92
2022/01/27 15:09:32;;;;;;;8.90;5.50;;;;;;;;;;4952167;29;20280;-92
2022/01/27 15:12:02;;;;;;;6.93;3.63;;;;;;;;;;4938994;29;20214;-92
2022/01/27 15:20:04;;;;;;;11.73;6.10;;;;;;;;;;4958318;29;20212;-93
2022/01/27 15:22:32;;;;;;;11.87;6.73;;;;;;;;;;4952541;28;20249;-93
2022/01/27 15:25:01;;;;;;;14.60;5.97;;;;;;;;;;4938417;28;20228;-93
2022/01/27 15:27:28;;;;;;;12.20;6.03;;;;;;;;;;4933875;29;20213;-94
2022/01/27 15:29:56;;;;;;;10.10;5.67;;;;;;;;;;4933365;29;20285;-91
2022/01/27 15:32:23;;;;;;;9.47;5.43;;;;;;;;;;4933959;29;20388;-91
2022/01/27 15:34:54;;;;;;;12.47;6.43;;;;;;;;;;4934436;29;20226;-91
2022/01/27 15:37:23;;;;;;;8.37;4.20;;;;;;;;;;4934239;28;20212;-90
2022/01/27 15:39:56;;;;;;;9.93;6.27;;;;;;;;;;4934627;29;20292;-91
2022/01/27 15:42:25;;;;;;;10.37;5.83;;;;;;;;;;4934622;29;20250;-91
2022/01/27 15:44:52;;;;;;;9.87;5.90;;;;;;;;;;4933589;29;20601;-91
2022/01/27 15:47:19;;;;;;;9.93;5.93;;;;;;;;;;4934520;29;20604;-91
2022/01/27 15:49:47;;;;;;;11.60;6.17;;;;;;;;;;4934641;29;20599;-91
2022/01/27 15:52:14;;;;;;;10.37;5.50;;;;;;;;;;4933991;29;20210;-91
2022/01/27 15:54:42;;;;;;;9.37;5.27;;;;;;;;;;4932882;29;20485;-91
2022/01/27 15:57:09;;;;;;;9.50;5.33;;;;;;;;;;4948828;29;20208;-91
2022/01/27 15:59:38;;;;;;;10.53;6.50;;;;;;;;;;4952818;29;20212;-91
2022/01/27 16:02:06;;;;;;;11.83;7.20;;;;;;;;;;4952236;29;20209;-90
2022/01/27 16:04:33;;;;;;;11.10;6.00;;;;;;;;;;4933766;29;20241;-91
2022/01/27 16:07:00;;;;;;;11.57;5.80;;;;;;;;;;4933315;29;20234;-91
2022/01/27 16:09:28;;;;;;;19.23;7.90;;;;;;;;;;4932884;29;20611;-91
2022/01/27 16:11:55;;;;;;;27.47;12.37;;;;;;;;;;4946288;29;20209;-91
2022/01/27 16:14:23;;;;;;;8.33;5.73;;;;;;;;;;4950985;29;20605;-91
2022/01/27 16:16:53;;;;;;;60.33;26.07;;;;;;;;;;4933084;29;20655;-91
2022/01/27 16:19:21;;;;;;;14.73;7.80;;;;;;;;;;4932993;29;20221;-91
2022/01/27 16:21:48;;;;;;;12.30;6.37;;;;;;;;;;4932965;29;20220;-91
2022/01/27 16:24:16;;;;;;;8.53;4.17;;;;;;;;;;4940763;29;20621;-91
2022/01/27 16:26:43;;;;;;;29.43;17.03;;;;;;;;;;4932845;29;20246;-90
2022/01/27 16:29:11;;;;;;;12.93;6.70;;;;;;;;;;4940516;29;20217;-91
2022/01/27 16:31:44;;;;;;;12.13;6.17;;;;;;;;;;4951872;29;20217;-91
2022/01/27 16:34:13;;;;;;;12.67;7.60;;;;;;;;;;4951808;28;20233;-91
2022/01/27 16:36:41;;;;;;;12.73;7.73;;;;;;;;;;4951852;29;20285;-92
2022/01/27 16:39:08;;;;;;;11.33;6.13;;;;;;;;;;4952431;29;20205;-91
2022/01/27 16:41:36;;;;;;;10.40;5.23;;;;;;;;;;4954567;29;20654;-92
2022/01/27 16:44:03;;;;;;;14.40;7.73;;;;;;;;;;4954548;29;20252;-92
2022/01/27 16:46:34;;;;;;;12.20;7.27;;;;;;;;;;4954790;29;20209;-92
2022/01/27 16:49:01;;;;;;;13.67;7.53;;;;;;;;;;4952364;29;20308;-92
2022/01/27 16:51:30;;;;;;;13.70;6.97;;;;;;;;;;4952358;29;20209;-93
2022/01/27 16:53:58;;;;;;;15.47;6.90;;;;;;;;;;4938197;29;20246;-92
2022/01/27 16:56:25;;;;;;;10.83;6.40;;;;;;;;;;4950026;29;20211;-92
2022/01/27 16:58:53;;;;;;;13.60;7.67;;;;;;;;;;4951603;29;20861;-92
2022/01/27 17:01:20;;;;;;;19.67;8.07;;;;;;;;;;4962943;28;20205;-92
2022/01/27 17:03:51;;;;;;;13.73;7.20;;;;;;;;;;4953142;29;20225;-92
2022/01/27 17:06:18;;;;;;;16.37;8.40;;;;;;;;;;4953169;29;20213;-92
2022/01/27 17:08:47;;;;;;;15.60;8.27;;;;;;;;;;4952709;29;20232;-92
2022/01/27 17:11:14;;;;;;;14.80;7.53;;;;;;;;;;4952496;29;20577;-93
2022/01/27 17:13:42;;;;;;;16.90;8.37;;;;;;;;;;4952691;29;20288;-92
2022/01/27 17:16:13;;;;;;;12.20;6.43;;;;;;;;;;4952318;29;20212;-92
2022/01/27 17:18:41;;;;;;;15.33;8.30;;;;;;;;;;4952879;29;20730;-92
2022/01/27 17:21:14;;;;;;;14.93;7.13;;;;;;;;;;4952322;29;20224;-92
2022/01/27 17:23:43;;;;;;;17.37;9.07;;;;;;;;;;4952675;29;20710;-92
2022/01/27 17:26:14;;;;;;;20.53;10.57;;;;;;;;;;4952618;29;20213;-93
2022/01/27 17:28:43;;;;;;;17.30;9.03;;;;;;;;;;4952363;28;20226;-92
2022/01/27 17:31:11;;;;;;;12.40;7.77;;;;;;;;;;4952998;29;20228;-92
2022/01/27 17:33:41;;;;;;;12.10;7.23;;;;;;;;;;4953205;29;20539;-93
2022/01/27 17:36:08;;;;;;;13.43;7.10;;;;;;;;;;4955450;29;20205;-93
2022/01/27 17:38:37;;;;;;;7.37;4.30;;;;;;;;;;4955190;29;20209;-93
2022/01/27 17:41:04;;;;;;;11.80;6.90;;;;;;;;;;4953628;29;20209;-92
2022/01/27 17:43:42;;;;;;;14.73;7.20;;;;;;;;;;4952508;29;20762;-93
2022/01/27 17:46:10;;;;;;;15.63;7.43;;;;;;;;;;4956109;28;20688;-93
2022/01/27 17:48:37;;;;;;;14.90;7.63;;;;;;;;;;4956674;29;20215;-92
2022/01/27 17:51:05;;;;;;;12.30;7.10;;;;;;;;;;4956671;29;20209;-93
2022/01/27 17:53:32;;;;;;;14.47;8.50;;;;;;;;;;4956730;29;20229;-92
2022/01/27 17:56:01;;;;;;;12.87;7.50;;;;;;;;;;4956433;29;20217;-91
2022/01/27 17:58:29;;;;;;;17.37;8.70;;;;;;;;;;4956308;29;20213;-92
2022/01/27 18:00:58;;;;;;;15.83;7.97;;;;;;;;;;4956232;29;20305;-93
2022/01/27 18:03:25;;;;;;;14.50;7.33;;;;;;;;;;4955739;29;20239;-92
2022/01/27 18:05:56;;;;;;;10.93;5.90;;;;;;;;;;4957114;29;20217;-92
2022/01/27 18:08:24;;;;;;;15.27;7.57;;;;;;;;;;4956199;29;20720;-93
2022/01/27 18:10:51;;;;;;;10.83;6.50;;;;;;;;;;4964781;28;20229;-92
2022/01/27 18:13:19;;;;;;;13.57;6.67;;;;;;;;;;4954086;29;20221;-92
2022/01/27 18:15:46;;;;;;;11.53;6.57;;;;;;;;;;4946276;29;20206;-92
2022/01/27 18:18:15;;;;;;;13.73;6.23;;;;;;;;;;4954244;29;20209;-91
2022/01/27 18:20:43;;;;;;;12.77;7.43;;;;;;;;;;4949399;29;20195;-91
2022/01/27 18:23:10;;;;;;;8.37;2.50;;;;;;;;;;4949686;29;20264;-91
2022/01/27 18:25:37;;;;;;;13.87;6.60;;;;;;;;;;4945510;29;20213;-92
2022/01/27 18:28:05;;;;;;;15.17;7.53;;;;;;;;;;4953391;29;20221;-91
2022/01/27 18:30:33;;;;;;;15.07;7.13;;;;;;;;;;4954181;28;20233;-92
2022/01/27 18:33:00;;;;;;;13.67;7.70;;;;;;;;;;4941986;28;20218;-92
2022/01/27 18:35:29;;;;;;;13.10;7.37;;;;;;;;;;4950090;29;20233;-92
2022/01/27 18:37:56;;;;;;;14.33;7.20;;;;;;;;;;4954162;29;20213;-91
2022/01/27 18:40:24;;;;;;;15.43;6.13;;;;;;;;;;4949212;29;20216;-91
2022/01/27 18:42:54;;;;;;;12.67;6.47;;;;;;;;;;4953331;29;20205;-91
2022/01/27 18:45:23;;;;;;;13.23;7.73;;;;;;;;;;4954065;29;20225;-91
2022/01/27 18:47:50;;;;;;;10.93;7.30;;;;;;;;;;4954567;29;20211;-91
2022/01/27 18:50:22;;;;;;;13.67;7.37;;;;;;;;;;4953278;29;20666;-92
2022/01/27 18:52:50;;;;;;;13.23;7.37;;;;;;;;;;4947995;29;20205;-92
2022/01/27 18:55:18;;;;;;;20.27;10.10;;;;;;;;;;4954175;28;20240;-91
2022/01/27 18:57:45;;;;;;;12.93;6.10;;;;;;;;;;4954549;28;20217;-93
2022/01/27 19:00:13;;;;;;;17.20;9.30;;;;;;;;;;4956313;29;20236;-92
2022/01/27 19:02:41;;;;;;;13.50;6.87;;;;;;;;;;4955921;29;20268;-93
2022/01/27 19:05:09;;;;;;;13.63;7.17;;;;;;;;;;4955535;29;20241;-91
2022/01/27 19:07:37;;;;;;;14.03;6.07;;;;;;;;;;4949363;29;20207;-91
2022/01/27 19:10:06;;;;;;;14.27;7.70;;;;;;;;;;4951358;29;20229;-92
2022/01/27 19:12:34;;;;;;;12.43;7.03;;;;;;;;;;4957803;29;20205;-92
2022/01/27 19:15:01;;;;;;;11.47;6.87;;;;;;;;;;4956479;29;20247;-92
2022/01/27 19:17:29;;;;;;;14.03;7.77;;;;;;;;;;4955673;29;20233;-92
2022/01/27 19:19:57;;;;;;;9.93;6.40;;;;;;;;;;4935224;29;20209;-92
2022/01/27 19:22:25;;;;;;;13.27;7.93;;;;;;;;;;4935770;29;20265;-93
2022/01/27 19:24:54;;;;;;;11.30;5.60;;;;;;;;;;4937184;29;20236;-92
2022/01/27 19:27:24;;;;;;;17.63;7.70;;;;;;;;;;4936988;29;20210;-92
2022/01/27 19:29:55;;;;;;;11.50;6.90;;;;;;;;;;4937018;29;20226;-93
2022/01/27 19:32:23;;;;;;;15.90;9.07;;;;;;;;;;4937599;29;20221;-92
2022/01/27 19:34:50;;;;;;;14.17;6.90;;;;;;;;;;4937611;29;20254;-91
2022/01/27 19:37:20;;;;;;;10.60;6.83;;;;;;;;;;4936860;29;20210;-92
2022/01/27 19:39:48;;;;;;;11.83;6.47;;;;;;;;;;4936216;29;20206;-93
2022/01/27 19:42:16;;;;;;;18.53;9.63;;;;;;;;;;4937075;29;20238;-92
2022/01/27 19:44:45;;;;;;;11.87;6.27;;;;;;;;;;4936009;29;20238;-93
2022/01/27 19:47:22;;;;;;;;;;;;;;;;;;;;;
2022/01/27 19:49:52;;;;;;;13.43;7.77;;;;;;;;;;4936854;29;20222;-92
2022/01/27 19:52:21;;;;;;;11.20;6.70;;;;;;;;;;4937683;29;20237;-93
2022/01/27 19:54:49;;;;;;;11.47;6.00;;;;;;;;;;4936431;29;20245;-93
2022/01/27 19:57:16;;;;;;;12.57;6.70;;;;;;;;;;4936180;29;20214;-93
2022/01/27 19:59:45;;;;;;;12.50;5.87;;;;;;;;;;4936570;29;20213;-94
2022/01/27 20:02:13;;;;;;;10.40;6.00;;;;;;;;;;4937852;29;20220;-93
2022/01/27 20:04:40;;;;;;;11.10;6.70;;;;;;;;;;4937178;29;20233;-94
2022/01/27 20:07:10;;;;;;;11.50;5.97;;;;;;;;;;4938465;29;20217;-93
2022/01/27 20:09:38;;;;;;;13.07;7.10;;;;;;;;;;4938616;29;20217;-93
2022/01/27 20:12:06;;;;;;;13.77;6.90;;;;;;;;;;4937606;29;20220;-93
2022/01/27 20:14:34;;;;;;;13.33;6.60;;;;;;;;;;4938690;29;20234;-93
2022/01/27 20:17:05;;;;;;;14.00;6.33;;;;;;;;;;4948580;29;20221;-93
2022/01/27 20:19:35;;;;;;;10.37;6.83;;;;;;;;;;4947773;29;20202;-94
2022/01/27 20:22:03;;;;;;;13.47;5.40;;;;;;;;;;4948920;29;20220;-93
2022/01/27 20:24:32;;;;;;;10.00;6.10;;;;;;;;;;4953020;29;20226;-93
2022/01/27 20:27:00;;;;;;;8.83;5.43;;;;;;;;;;4945395;29;20301;-92
2022/01/27 20:29:28;;;;;;;8.97;6.00;;;;;;;;;;4943796;29;20213;-93
2022/01/27 20:31:55;;;;;;;10.67;6.10;;;;;;;;;;4943955;29;20206;-94
2022/01/27 20:34:24;;;;;;;9.97;6.00;;;;;;;;;;4946717;29;20234;-92
2022/01/27 20:36:52;;;;;;;10.37;5.93;;;;;;;;;;4947950;29;20206;-93
2022/01/27 20:39:19;;;;;;;7.77;5.00;;;;;;;;;;4952685;29;20210;-95
2022/01/27 20:41:46;;;;;;;7.03;5.43;;;;;;;;;;4952281;29;20214;-94
2022/01/27 20:44:14;;;;;;;7.40;5.20;;;;;;;;;;4952496;29;20262;-94
2022/01/27 20:46:41;;;;;;;7.10;4.40;;;;;;;;;;4953791;29;20266;-94
2022/01/27 20:49:10;;;;;;;8.03;5.10;;;;;;;;;;4954060;29;20206;-95
2022/01/27 20:51:38;;;;;;;7.07;4.83;;;;;;;;;;4954580;28;20230;-95